logo
Rechercher aéroport 
image banner adimage banner adimage banner ad
image banner ad

OPKE - Chore Airport

Situé à Chore, Pakistan

ICAO - OPKE, IATA -

Données fournies par Airmate  

Information générale

Coordonnées: N25°31'34" E69°46'18"
Élévation : 200 feet MSL.
Variation magnétique : 1° East
Voir autres Aéroports à Sindh

Données opérationnelles

Special qualification required
Heure actuelle UTC:
Heure actuelle locale:
Météo à : - ( 0 km )
METAR: KTPL 241851Z AUTO 13013G16KT 10SM SCT044 33/23 A2997 RMK AO2 SLP138 T03280228
Voir NOTAMs / SUP AIP / TFR affectant cet aéroport [VIEW]
Fréquences de communication: [VIEW]

Pistes:

Identifiant RWYQFULongueur (ft)Largeur (ft)SurfaceLDA (ft)
22225°168546ASPH
0445°168546ASPH

Coordonnées de l'aéroport

Adresse: Chore Pakistan

Vue satellite de OPKE